createdAt,value
2018-01-15T00:01:57.446Z,62.10
2018-01-15T00:04:23.949Z,62.40
2018-01-15T00:06:50.385Z,62.40
2018-01-15T00:09:16.828Z,62.10
2018-01-15T00:11:43.312Z,61.90
2018-01-15T00:14:09.780Z,61.90
2018-01-15T00:16:36.245Z,62.30
2018-01-15T00:19:02.749Z,62.40
2018-01-15T00:21:29.163Z,62.40
2018-01-15T00:23:56.361Z,62.70
2018-01-15T00:26:22.823Z,62.50
2018-01-15T00:28:49.256Z,62.60
2018-01-15T00:31:15.717Z,62.80
2018-01-15T00:33:42.148Z,63.00
2018-01-15T00:36:08.651Z,62.90
2018-01-15T00:38:35.095Z,62.80
2018-01-15T00:41:01.534Z,62.90
2018-01-15T00:43:28.708Z,62.70
2018-01-15T00:45:55.244Z,62.70
2018-01-15T00:48:21.664Z,62.70
2018-01-15T00:50:48.810Z,62.50
2018-01-15T00:53:15.979Z,62.70
2018-01-15T00:55:42.409Z,62.70
2018-01-15T00:58:08.860Z,62.60
2018-01-15T01:00:35.274Z,62.90
2018-01-15T01:03:01.765Z,62.90
2018-01-15T01:05:28.216Z,63.10
2018-01-15T01:07:55.373Z,63.30
2018-01-15T01:10:21.836Z,63.30
2018-01-15T01:12:48.264Z,63.70
2018-01-15T01:15:14.679Z,63.50
2018-01-15T01:17:41.828Z,63.30
2018-01-15T01:20:08.276Z,63.30
2018-01-15T01:22:34.692Z,63.30
2018-01-15T01:25:01.139Z,63.50
2018-01-15T01:27:27.573Z,63.60
2018-01-15T01:29:54.029Z,63.50
2018-01-15T01:32:20.464Z,63.50
2018-01-15T01:34:46.989Z,63.60
2018-01-15T01:37:13.410Z,63.50
2018-01-15T01:39:39.823Z,63.50
2018-01-15T01:42:07.010Z,63.50
2018-01-15T01:44:33.424Z,63.50
2018-01-15T01:46:59.854Z,63.50
2018-01-15T01:49:26.317Z,63.90
2018-01-15T01:51:53.492Z,64.40
2018-01-15T01:54:19.892Z,64.00
2018-01-15T01:56:46.324Z,64.10
2018-01-15T01:59:12.737Z,64.20
2018-01-15T02:01:39.284Z,64.20
2018-01-15T02:04:05.764Z,64.50
2018-01-15T02:06:32.940Z,64.60
2018-01-15T02:08:59.405Z,64.60
2018-01-15T02:11:25.835Z,64.60
2018-01-15T02:13:52.305Z,65.20
2018-01-15T02:16:18.741Z,65.20
2018-01-15T02:18:45.152Z,65.30
2018-01-15T02:21:11.577Z,65.30
2018-01-15T02:23:38.026Z,65.50
2018-01-15T02:26:04.510Z,65.20
2018-01-15T02:28:30.952Z,65.90
2018-01-15T02:30:57.432Z,65.90
2018-01-15T02:33:23.877Z,65.90
2018-01-15T02:35:50.340Z,66.00
2018-01-15T02:38:16.834Z,66.00
2018-01-15T02:40:43.288Z,65.90
2018-01-15T02:43:10.468Z,66.00
2018-01-15T02:45:36.905Z,65.90
2018-01-15T02:48:03.421Z,66.20
2018-01-15T02:50:30.608Z,66.40
2018-01-15T02:52:57.072Z,66.40
2018-01-15T02:55:23.512Z,66.60
2018-01-15T02:57:50.324Z,66.50
2018-01-15T03:00:16.746Z,66.30
2018-01-15T03:02:43.176Z,66.40
2018-01-15T03:05:09.618Z,66.50
2018-01-15T03:07:36.101Z,66.80
2018-01-15T03:10:03.340Z,66.80
2018-01-15T03:12:29.781Z,66.80
2018-01-15T03:14:56.221Z,66.70
2018-01-15T03:17:23.399Z,66.50
2018-01-15T03:19:49.803Z,66.50
2018-01-15T03:22:16.232Z,66.60
2018-01-15T03:24:42.630Z,66.90
2018-01-15T03:27:09.810Z,66.80
2018-01-15T03:29:36.996Z,66.70
2018-01-15T03:32:03.468Z,66.70
2018-01-15T03:34:30.616Z,66.90
2018-01-15T03:36:57.790Z,66.60
2018-01-15T03:39:24.206Z,66.60
2018-01-15T03:41:50.629Z,66.90
2018-01-15T03:44:17.211Z,66.80
2018-01-15T03:46:44.375Z,67.00
2018-01-15T03:49:10.833Z,66.80
2018-01-15T03:51:37.343Z,67.00
2018-01-15T03:54:03.785Z,66.80
2018-01-15T03:56:30.231Z,66.40
2018-01-15T03:58:56.663Z,66.40
2018-01-15T04:01:23.065Z,66.20
2018-01-15T04:03:49.484Z,66.20
2018-01-15T04:06:15.905Z,66.10
2018-01-15T04:08:43.059Z,66.30
2018-01-15T04:11:09.498Z,66.30
2018-01-15T04:13:36.648Z,66.50
2018-01-15T04:16:03.096Z,66.50
2018-01-15T04:18:29.578Z,66.30
2018-01-15T04:20:56.003Z,66.30
2018-01-15T04:23:22.466Z,66.40
2018-01-15T04:25:48.880Z,66.00
2018-01-15T04:28:16.045Z,65.90
2018-01-15T04:30:42.503Z,65.70
2018-01-15T04:33:09.672Z,65.60
2018-01-15T04:35:36.100Z,65.50
2018-01-15T04:38:02.570Z,65.30
2018-01-15T04:40:28.998Z,65.60
2018-01-15T04:42:55.555Z,65.60
2018-01-15T04:45:22.710Z,65.20
2018-01-15T04:47:49.115Z,65.30
2018-01-15T04:50:15.588Z,65.10
2018-01-15T04:52:42.056Z,65.10
2018-01-15T04:55:08.478Z,65.10
2018-01-15T04:57:34.916Z,65.70
2018-01-15T05:00:01.374Z,65.90
2018-01-15T05:02:27.818Z,66.00
2018-01-15T05:04:54.244Z,66.50
2018-01-15T05:07:20.684Z,66.10
2018-01-15T05:09:47.124Z,66.00
2018-01-15T05:12:14.269Z,66.10
2018-01-15T05:14:40.694Z,66.20
2018-01-15T05:17:07.140Z,66.40
2018-01-15T05:19:33.545Z,66.40
2018-01-15T05:22:00.041Z,66.30
2018-01-15T05:24:27.237Z,65.70
2018-01-15T05:26:53.664Z,66.40
2018-01-15T05:29:20.092Z,66.40
2018-01-15T05:31:46.585Z,66.60
2018-01-15T05:34:12.997Z,66.80
2018-01-15T05:36:39.678Z,66.80
2018-01-15T05:39:06.836Z,66.80
2018-01-15T05:41:33.276Z,66.70
2018-01-15T05:43:59.721Z,66.90
2018-01-15T05:46:26.157Z,67.00
2018-01-15T05:48:52.581Z,66.90
2018-01-15T05:51:19.036Z,67.00
2018-01-15T05:53:45.493Z,67.10
2018-01-15T05:56:11.932Z,67.20
2018-01-15T05:58:38.354Z,67.00
2018-01-15T06:01:04.797Z,66.50
2018-01-15T06:03:31.224Z,66.20
2018-01-15T06:05:57.938Z,66.00
2018-01-15T06:08:24.322Z,66.40
2018-01-15T06:10:51.492Z,66.80
2018-01-15T06:13:17.922Z,66.80
2018-01-15T06:15:44.344Z,66.80
2018-01-15T06:18:11.504Z,67.00
2018-01-15T06:20:37.985Z,67.00
2018-01-15T06:23:04.449Z,66.90
2018-01-15T06:25:30.861Z,66.90
2018-01-15T06:27:57.272Z,66.80
2018-01-15T06:30:23.741Z,66.90
2018-01-15T06:32:50.170Z,66.70
2018-01-15T06:35:16.640Z,66.00
2018-01-15T06:37:43.065Z,65.60
2018-01-15T06:40:09.476Z,65.30
2018-01-15T06:42:36.665Z,65.90
2018-01-15T06:45:03.097Z,65.80
2018-01-15T06:47:29.676Z,65.90
2018-01-15T06:49:56.846Z,66.40
2018-01-15T06:52:23.248Z,66.20
2018-01-15T06:54:49.856Z,66.00
2018-01-15T06:57:16.276Z,66.20
2018-01-15T06:59:42.696Z,66.10
2018-01-15T07:02:09.164Z,66.10
2018-01-15T07:04:35.610Z,65.90
2018-01-15T07:07:02.076Z,65.80
2018-01-15T07:09:28.529Z,65.60
2018-01-15T07:11:55.694Z,65.60
2018-01-15T07:14:22.157Z,65.50
2018-01-15T07:16:48.577Z,65.70
2018-01-15T07:19:14.975Z,65.80
2018-01-15T07:21:41.399Z,65.90
2018-01-15T07:24:08.666Z,65.90
2018-01-15T07:26:35.933Z,65.30
2018-01-15T07:29:02.372Z,65.30
2018-01-15T07:31:28.781Z,65.40
2018-01-15T07:33:55.430Z,65.60
2018-01-15T07:36:21.956Z,65.10
2018-01-15T07:38:48.449Z,65.20
2018-01-15T07:41:14.852Z,65.20
2018-01-15T07:43:41.329Z,65.30
2018-01-15T07:46:07.748Z,64.60
2018-01-15T07:48:34.159Z,64.30
2018-01-15T07:51:00.621Z,63.90
2018-01-15T07:53:27.070Z,63.80
2018-01-15T07:55:53.501Z,63.70
2018-01-15T07:58:20.676Z,63.50
2018-01-15T08:00:47.121Z,63.50
2018-01-15T08:03:13.868Z,64.00
2018-01-15T08:05:40.292Z,63.40
2018-01-15T08:08:06.708Z,62.90
2018-01-15T08:10:33.160Z,62.60
2018-01-15T08:12:59.598Z,61.90
2018-01-15T08:15:26.064Z,61.10
2018-01-15T08:17:52.523Z,58.80
2018-01-15T08:20:19.684Z,54.50
2018-01-15T08:22:46.865Z,54.70
2018-01-15T08:25:13.367Z,54.70
2018-01-15T08:27:40.549Z,54.60
2018-01-15T08:30:07.060Z,54.50
2018-01-15T08:32:33.484Z,54.80
2018-01-15T08:35:00.688Z,56.00
2018-01-15T08:37:27.210Z,56.00
2018-01-15T08:39:53.646Z,55.80
2018-01-15T08:42:20.851Z,57.20
2018-01-15T08:44:48.034Z,57.70
2018-01-15T08:47:14.481Z,57.70
2018-01-15T08:49:41.036Z,56.90
2018-01-15T08:52:07.477Z,53.00
2018-01-15T08:54:33.920Z,47.10
2018-01-15T08:57:00.365Z,42.20
2018-01-15T08:59:26.789Z,40.10
2018-01-15T09:01:53.246Z,38.20
2018-01-15T09:04:19.700Z,35.80
2018-01-15T09:06:46.124Z,36.00
2018-01-15T09:09:12.543Z,38.30
2018-01-15T09:11:38.969Z,41.10
2018-01-15T09:14:06.223Z,47.10
2018-01-15T09:16:33.509Z,49.70
2018-01-15T09:19:00.267Z,49.70
2018-01-15T09:21:26.677Z,51.30
2018-01-15T09:23:53.074Z,52.40
2018-01-15T09:26:19.617Z,54.10
2018-01-15T09:28:46.028Z,55.30
2018-01-15T09:31:12.461Z,55.40
2018-01-15T09:33:38.893Z,55.60
2018-01-15T09:36:05.397Z,56.30
2018-01-15T09:38:31.838Z,55.60
2018-01-15T09:40:58.332Z,55.80
2018-01-15T09:43:24.767Z,56.00
2018-01-15T09:45:51.253Z,56.40
2018-01-15T09:48:17.690Z,56.40
2018-01-15T09:50:44.137Z,56.60
2018-01-15T09:53:11.395Z,56.70
2018-01-15T09:55:38.591Z,56.80
2018-01-15T09:58:05.041Z,56.80
2018-01-15T10:00:32.784Z,57.00
2018-01-15T10:02:59.245Z,57.00
2018-01-15T10:05:25.733Z,57.10
2018-01-15T10:07:52.172Z,57.50
2018-01-15T10:10:18.592Z,57.30
2018-01-15T10:12:45.637Z,57.40
2018-01-15T10:15:12.395Z,57.10
2018-01-15T10:17:38.940Z,56.70
2018-01-15T10:20:06.129Z,55.90
2018-01-15T10:22:32.619Z,55.90
2018-01-15T10:24:59.102Z,56.10
2018-01-15T10:27:26.258Z,55.90
2018-01-15T10:29:53.464Z,55.70
2018-01-15T10:32:19.884Z,55.70
2018-01-15T10:34:46.324Z,56.20
2018-01-15T10:37:12.748Z,56.60
2018-01-15T10:39:39.186Z,56.70
2018-01-15T10:42:05.641Z,56.70
2018-01-15T10:44:32.113Z,56.90
2018-01-15T10:46:59.264Z,56.70
2018-01-15T10:49:25.752Z,56.70
2018-01-15T10:51:52.884Z,56.90
2018-01-15T10:54:19.309Z,57.00
2018-01-15T10:56:45.791Z,56.60
2018-01-15T10:59:13.021Z,56.70
2018-01-15T11:01:39.418Z,56.70
2018-01-15T11:04:05.872Z,57.10
2018-01-15T11:06:32.423Z,57.00
2018-01-15T11:08:58.844Z,57.10
2018-01-15T11:11:25.284Z,57.20
2018-01-15T11:13:51.762Z,56.90
2018-01-15T11:16:18.971Z,57.10
2018-01-15T11:18:45.506Z,57.00
2018-01-15T11:21:11.988Z,57.10
2018-01-15T11:23:39.236Z,56.60
2018-01-15T11:26:05.672Z,56.60
2018-01-15T11:28:32.127Z,56.30
2018-01-15T11:30:58.569Z,56.30
2018-01-15T11:33:24.986Z,55.50
2018-01-15T11:35:51.426Z,55.60
2018-01-15T11:38:17.821Z,55.30
2018-01-15T11:40:44.359Z,55.30
2018-01-15T11:43:11.603Z,55.10
2018-01-15T11:45:38.029Z,55.20
2018-01-15T11:48:04.465Z,54.90
2018-01-15T11:50:30.965Z,55.00
2018-01-15T11:52:57.384Z,54.60
2018-01-15T11:55:23.916Z,54.60
2018-01-15T11:57:50.341Z,54.20
2018-01-15T12:00:16.776Z,54.30
2018-01-15T12:02:43.224Z,54.10
2018-01-15T12:05:09.667Z,54.50
2018-01-15T12:07:36.072Z,54.50
2018-01-15T12:10:02.652Z,54.30
2018-01-15T12:12:29.209Z,54.30
2018-01-15T12:14:55.601Z,54.60
2018-01-15T12:17:22.084Z,54.60
2018-01-15T12:19:49.254Z,54.40
2018-01-15T12:22:15.821Z,54.40
2018-01-15T12:24:42.240Z,54.70
2018-01-15T12:27:08.661Z,54.80
2018-01-15T12:29:35.096Z,54.00
2018-01-15T12:32:01.506Z,53.40
2018-01-15T12:34:28.281Z,53.60
2018-01-15T12:36:54.693Z,53.40
2018-01-15T12:39:21.105Z,53.30
2018-01-15T12:41:48.297Z,52.40
2018-01-15T12:44:14.718Z,52.30
2018-01-15T12:46:41.119Z,51.50
2018-01-15T12:49:07.550Z,51.60
2018-01-15T12:51:34.002Z,52.00
2018-01-15T12:54:01.137Z,52.00
2018-01-15T12:56:28.321Z,52.30
2018-01-15T12:58:54.738Z,52.30
2018-01-15T13:01:21.915Z,52.20
2018-01-15T13:03:48.452Z,52.20
2018-01-15T13:06:18.986Z,52.60
2018-01-15T13:08:48.499Z,52.40
2018-01-15T13:11:14.944Z,52.50
2018-01-15T13:13:41.376Z,52.80
2018-01-15T13:16:07.823Z,52.90
2018-01-15T13:18:34.378Z,52.80
2018-01-15T13:21:00.809Z,52.90
2018-01-15T13:23:28.005Z,53.40
2018-01-15T13:25:54.408Z,53.30
2018-01-15T13:28:20.897Z,53.80
2018-01-15T13:30:47.341Z,53.80
2018-01-15T13:33:13.770Z,53.60
2018-01-15T13:35:40.200Z,53.90
2018-01-15T13:38:06.664Z,53.70
2018-01-15T13:40:33.103Z,54.00
2018-01-15T13:42:59.524Z,53.60
2018-01-15T13:45:26.694Z,54.00
2018-01-15T13:47:53.141Z,54.00
2018-01-15T13:50:19.597Z,53.90
2018-01-15T13:52:46.822Z,54.00
2018-01-15T13:55:13.237Z,53.80
2018-01-15T13:57:39.677Z,54.10
2018-01-15T14:00:06.340Z,54.10
2018-01-15T14:02:32.782Z,53.90
2018-01-15T14:04:59.246Z,54.30
2018-01-15T14:07:27.448Z,53.90
2018-01-15T14:09:54.661Z,54.20
2018-01-15T14:12:21.081Z,54.10
2018-01-15T14:14:47.551Z,53.60
2018-01-15T14:17:13.977Z,53.80
2018-01-15T14:19:41.164Z,53.40
2018-01-15T14:22:07.605Z,53.30
2018-01-15T14:24:34.182Z,53.10
2018-01-15T14:27:00.591Z,52.80
2018-01-15T14:29:27.029Z,52.70
2018-01-15T14:31:53.550Z,52.40
2018-01-15T14:34:20.011Z,51.70
2018-01-15T14:36:46.428Z,50.70
2018-01-15T14:39:12.833Z,49.90
2018-01-15T14:41:39.321Z,49.20
2018-01-15T14:44:05.780Z,49.30
2018-01-15T14:46:32.226Z,49.50
2018-01-15T14:48:58.727Z,48.90
2018-01-15T14:51:26.348Z,48.90
2018-01-15T14:53:52.765Z,48.80
2018-01-15T14:56:19.183Z,48.60
2018-01-15T14:58:45.637Z,49.00
2018-01-15T15:01:12.113Z,49.30
2018-01-15T15:03:38.516Z,49.40
2018-01-15T15:06:04.960Z,49.50
2018-01-15T15:08:31.436Z,49.20
2018-01-15T15:10:58.600Z,48.70
2018-01-15T15:13:25.017Z,48.60
2018-01-15T15:15:52.212Z,49.00
2018-01-15T15:18:18.644Z,48.90
2018-01-15T15:20:45.089Z,49.00
2018-01-15T15:23:11.493Z,49.10
2018-01-15T15:25:37.917Z,49.20
2018-01-15T15:28:04.372Z,49.10
2018-01-15T15:30:30.819Z,49.10
2018-01-15T15:32:57.419Z,49.20
2018-01-15T15:35:23.852Z,49.10
2018-01-15T15:37:50.284Z,49.30
2018-01-15T15:40:16.817Z,49.00
2018-01-15T15:42:43.248Z,49.20
2018-01-15T15:45:09.705Z,48.90
2018-01-15T15:47:36.161Z,49.30
2018-01-15T15:50:02.698Z,49.40
2018-01-15T15:52:29.168Z,49.40
2018-01-15T15:54:56.334Z,50.00
2018-01-15T15:57:22.781Z,50.00
2018-01-15T15:59:49.268Z,50.50
2018-01-15T16:02:15.708Z,50.40
2018-01-15T16:04:42.896Z,50.60
2018-01-15T16:07:10.359Z,50.60
2018-01-15T16:09:37.718Z,50.60
2018-01-15T16:12:04.165Z,50.60
2018-01-15T16:14:30.596Z,50.70
2018-01-15T16:16:57.041Z,50.60
2018-01-15T16:19:23.507Z,50.60
2018-01-15T16:22:02.953Z,51.10
2018-01-15T16:24:29.336Z,51.10
2018-01-15T16:26:55.800Z,51.50
2018-01-15T16:29:22.998Z,51.50
2018-01-15T16:31:49.500Z,51.50
2018-01-15T16:34:16.705Z,51.90
2018-01-15T16:36:43.895Z,52.10
2018-01-15T16:39:11.096Z,51.70
2018-01-15T16:41:37.545Z,51.70
2018-01-15T16:44:03.965Z,52.00
2018-01-15T16:46:30.423Z,52.00
2018-01-15T16:48:56.857Z,51.70
2018-01-15T16:51:23.329Z,51.70
2018-01-15T16:53:49.848Z,52.00
2018-01-15T16:56:17.074Z,52.50
2018-01-15T16:58:43.578Z,52.40
2018-01-15T17:01:10.010Z,52.60
2018-01-15T17:03:36.491Z,52.50
2018-01-15T17:06:02.988Z,52.80
2018-01-15T17:08:29.448Z,53.10
2018-01-15T17:10:56.663Z,53.00
2018-01-15T17:13:23.140Z,52.90
2018-01-15T17:15:49.682Z,53.10
2018-01-15T17:18:16.859Z,53.30
2018-01-15T17:20:43.372Z,53.20
2018-01-15T17:23:09.824Z,53.10
2018-01-15T17:25:36.309Z,53.40
2018-01-15T17:28:02.791Z,53.60
2018-01-15T17:30:29.230Z,53.70
2018-01-15T17:32:55.708Z,53.70
2018-01-15T17:35:22.289Z,54.00
2018-01-15T17:37:48.816Z,53.90
2018-01-15T17:40:16.109Z,54.50
2018-01-15T17:42:42.578Z,54.50
2018-01-15T17:45:09.000Z,54.30
2018-01-15T17:47:35.456Z,54.60
2018-01-15T17:50:01.872Z,54.60
2018-01-15T17:52:28.417Z,54.70
2018-01-15T17:54:55.609Z,54.80
2018-01-15T17:57:22.067Z,54.70
2018-01-15T17:59:48.544Z,54.80
2018-01-15T18:02:14.994Z,54.80
2018-01-15T18:04:42.184Z,55.00
2018-01-15T18:07:08.655Z,54.90
2018-01-15T18:09:35.106Z,54.40
2018-01-15T18:12:02.325Z,54.50
2018-01-15T18:14:28.793Z,54.40
2018-01-15T18:16:55.301Z,55.00
2018-01-15T18:19:21.754Z,55.20
2018-01-15T18:21:49.011Z,55.00
2018-01-15T18:24:15.464Z,54.90
2018-01-15T18:26:41.924Z,55.10
2018-01-15T18:29:08.345Z,55.70
2018-01-15T18:31:34.788Z,55.70
2018-01-15T18:34:01.387Z,55.50
2018-01-15T18:36:27.861Z,55.80
2018-01-15T18:38:54.332Z,56.50
2018-01-15T18:41:20.841Z,56.10
2018-01-15T18:43:47.301Z,58.30
2018-01-15T18:46:13.773Z,58.80
2018-01-15T18:48:40.326Z,59.60
2018-01-15T18:51:06.816Z,60.20
2018-01-15T18:53:34.043Z,61.10
2018-01-15T18:56:00.496Z,61.10
2018-01-15T18:58:27.653Z,62.10
2018-01-15T19:00:54.139Z,62.20
2018-01-15T19:03:21.401Z,63.10
2018-01-15T19:05:47.866Z,63.10
2018-01-15T19:08:14.373Z,63.70
2018-01-15T19:10:40.860Z,63.80
2018-01-15T19:13:07.382Z,63.90
2018-01-15T19:15:33.914Z,63.90
2018-01-15T19:18:00.385Z,64.50
2018-01-15T19:20:26.865Z,64.60
2018-01-15T19:22:54.120Z,64.90
2018-01-15T19:25:21.334Z,65.40
2018-01-15T19:27:47.847Z,65.30
2018-01-15T19:30:14.318Z,65.90
2018-01-15T19:32:40.828Z,66.20
2018-01-15T19:35:09.104Z,66.50
2018-01-15T19:37:41.008Z,66.40
2018-01-15T19:40:08.244Z,67.30
2018-01-15T19:42:34.770Z,67.30
2018-01-15T19:45:07.277Z,67.50
2018-01-15T19:47:39.965Z,67.60
2018-01-15T19:50:12.798Z,67.90
2018-01-15T19:52:45.372Z,68.70
2018-01-15T19:55:18.006Z,68.40
2018-01-15T19:57:51.334Z,69.10
2018-01-15T20:00:23.933Z,69.10
2018-01-15T20:03:11.261Z,69.10
2018-01-15T20:05:43.677Z,69.10
2018-01-15T20:08:16.194Z,69.10
2018-01-15T20:10:47.641Z,69.30
2018-01-15T20:13:14.101Z,69.20
2018-01-15T20:15:41.369Z,69.20
2018-01-15T20:18:08.601Z,69.20
2018-01-15T20:20:35.049Z,69.10
2018-01-15T20:23:02.392Z,69.70
2018-01-15T20:25:28.884Z,69.20
2018-01-15T20:27:55.302Z,69.30
2018-01-15T20:30:21.821Z,69.30
2018-01-15T20:32:48.301Z,69.30
2018-01-15T20:35:14.879Z,69.30
2018-01-15T20:37:42.112Z,69.10
2018-01-15T20:40:08.535Z,69.10
2018-01-15T20:42:34.953Z,69.10
2018-01-15T20:45:01.505Z,68.90
2018-01-15T20:47:27.964Z,69.30
2018-01-15T20:49:54.404Z,69.30
2018-01-15T20:52:21.605Z,69.40
2018-01-15T20:54:48.021Z,69.30
2018-01-15T20:57:14.468Z,69.30
2018-01-15T20:59:40.957Z,69.30
2018-01-15T21:02:08.104Z,69.30
2018-01-15T21:04:34.558Z,69.30
2018-01-15T21:07:01.042Z,69.30
2018-01-15T21:09:28.224Z,69.30
2018-01-15T21:11:54.967Z,69.30
2018-01-15T21:14:21.799Z,69.30
2018-01-15T21:16:48.995Z,69.40
2018-01-15T21:19:15.509Z,69.30
2018-01-15T21:21:42.036Z,69.30
2018-01-15T21:24:08.541Z,69.30
2018-01-15T21:26:34.963Z,69.00
2018-01-15T21:29:01.469Z,68.70
2018-01-15T21:31:27.888Z,69.00
2018-01-15T21:33:54.314Z,69.00
2018-01-15T21:36:20.781Z,68.90
2018-01-15T21:38:47.228Z,69.20
2018-01-15T21:41:14.472Z,69.00
2018-01-15T21:43:41.196Z,69.00
2018-01-15T21:46:07.644Z,69.30
2018-01-15T21:48:34.067Z,69.50
2018-01-15T21:51:00.543Z,69.60
2018-01-15T21:53:27.709Z,69.70
2018-01-15T21:55:54.890Z,69.60
2018-01-15T21:58:21.373Z,69.50
2018-01-15T22:00:48.639Z,69.00
2018-01-15T22:03:15.104Z,69.00
2018-01-15T22:05:41.555Z,69.00
2018-01-15T22:08:08.004Z,68.80
2018-01-15T22:10:34.424Z,68.80
2018-01-15T22:13:00.860Z,68.70
2018-01-15T22:15:27.318Z,68.80
2018-01-15T22:17:54.524Z,69.20
2018-01-15T22:20:20.977Z,69.10
2018-01-15T22:22:47.395Z,69.20
2018-01-15T22:25:13.863Z,69.30
2018-01-15T22:27:41.037Z,69.80
2018-01-15T22:30:08.193Z,69.90
2018-01-15T22:32:34.657Z,69.80
2018-01-15T22:35:01.077Z,69.80
2018-01-15T22:37:27.520Z,69.80
2018-01-15T22:52:53.117Z,68.30
2018-01-15T22:55:19.547Z,68.80
2018-01-15T22:57:45.944Z,68.10
2018-01-15T23:00:13.108Z,68.40
2018-01-15T23:02:39.540Z,68.40
2018-01-15T23:05:05.953Z,68.70
2018-01-15T23:07:32.431Z,69.50
2018-01-15T23:09:58.878Z,69.70
2018-01-15T23:12:25.313Z,69.90
2018-01-15T23:14:51.732Z,69.80
2018-01-15T23:17:18.182Z,69.60
2018-01-15T23:19:44.585Z,69.90
2018-01-15T23:22:11.037Z,69.90
2018-01-15T23:24:37.476Z,69.90
2018-01-15T23:27:03.880Z,69.90
2018-01-15T23:29:30.313Z,69.90
2018-01-15T23:31:56.781Z,70.00
2018-01-15T23:34:23.172Z,70.40
2018-01-15T23:36:49.641Z,70.50
2018-01-15T23:39:16.045Z,70.80
2018-01-15T23:41:42.488Z,70.40
2018-01-15T23:44:08.924Z,70.70
2018-01-15T23:46:35.358Z,70.90
2018-01-15T23:49:01.795Z,71.00
2018-01-15T23:51:28.340Z,71.00
2018-01-15T23:53:54.768Z,71.40
2018-01-15T23:56:21.293Z,71.50
2018-01-15T23:58:47.793Z,71.50
